createdAt,value
2022-07-26T00:00:42.480Z,59.78
2022-07-26T00:03:09.099Z,59.60
2022-07-26T00:05:35.472Z,59.50
2022-07-26T00:08:02.184Z,59.81
2022-07-26T00:10:29.731Z,59.84
2022-07-26T00:12:56.083Z,59.33
2022-07-26T00:15:22.397Z,59.49
2022-07-26T00:17:48.727Z,59.55
2022-07-26T00:20:15.084Z,59.42
2022-07-26T00:22:41.529Z,59.79
2022-07-26T00:25:07.849Z,59.44
2022-07-26T00:27:34.201Z,59.22
2022-07-26T00:30:00.609Z,59.59
2022-07-26T00:32:26.888Z,59.45
2022-07-26T00:34:53.217Z,59.16
2022-07-26T00:37:20.552Z,59.28
2022-07-26T00:39:47.132Z,59.01
2022-07-26T00:42:13.645Z,59.40
2022-07-26T00:44:39.999Z,59.52
2022-07-26T00:47:06.310Z,59.25
2022-07-26T00:49:32.679Z,59.69
2022-07-26T00:51:59.009Z,59.54
2022-07-26T00:54:25.380Z,59.68
2022-07-26T00:56:55.077Z,59.23
2022-07-26T00:59:21.668Z,59.74
2022-07-26T01:01:48.210Z,59.53
2022-07-26T01:04:14.636Z,59.90
2022-07-26T01:06:40.958Z,59.86
2022-07-26T01:09:07.443Z,59.96
2022-07-26T01:11:34.061Z,59.85
2022-07-26T01:14:00.439Z,59.39
2022-07-26T01:16:27.006Z,59.60
2022-07-26T01:18:53.452Z,59.55
2022-07-26T01:21:19.967Z,59.69
2022-07-26T01:23:46.293Z,59.92
2022-07-26T01:26:12.708Z,59.54
2022-07-26T01:28:40.274Z,59.22
2022-07-26T01:31:06.588Z,59.40
2022-07-26T01:33:33.031Z,59.42
2022-07-26T01:35:59.430Z,59.14
2022-07-26T01:38:25.824Z,59.59
2022-07-26T01:40:52.241Z,59.54
2022-07-26T01:43:18.624Z,59.29
2022-07-26T01:45:45.114Z,59.41
2022-07-26T01:48:11.499Z,59.62
2022-07-26T01:50:37.771Z,59.88
2022-07-26T01:53:06.119Z,59.55
2022-07-26T01:55:32.923Z,59.84
2022-07-26T01:58:00.670Z,59.78
2022-07-26T02:00:27.092Z,59.31
2022-07-26T02:02:53.762Z,59.55
2022-07-26T02:05:20.302Z,59.54
2022-07-26T02:07:46.715Z,59.71
2022-07-26T02:10:14.535Z,59.88
2022-07-26T02:12:41.010Z,59.73
2022-07-26T02:15:07.542Z,59.48
2022-07-26T02:17:33.960Z,59.53
2022-07-26T02:20:00.292Z,60.02
2022-07-26T02:22:26.798Z,59.89
2022-07-26T02:24:53.504Z,59.61
2022-07-26T02:27:20.148Z,59.62
2022-07-26T02:29:46.751Z,59.91
2022-07-26T02:32:13.098Z,59.96
2022-07-26T02:34:39.494Z,59.83
2022-07-26T02:37:05.921Z,59.92
2022-07-26T02:39:32.321Z,59.95
2022-07-26T02:41:58.731Z,60.02
2022-07-26T02:44:25.075Z,59.68
2022-07-26T02:46:51.501Z,59.87
2022-07-26T02:49:18.088Z,60.01
2022-07-26T02:51:44.558Z,59.98
2022-07-26T02:54:11.334Z,60.14
2022-07-26T02:56:38.066Z,60.16
2022-07-26T02:59:04.744Z,59.97
2022-07-26T03:01:31.178Z,60.00
2022-07-26T03:03:57.521Z,59.90
2022-07-26T03:06:23.913Z,59.64
2022-07-26T03:08:50.522Z,59.93
2022-07-26T03:11:16.831Z,59.70
2022-07-26T03:13:43.133Z,59.74
2022-07-26T03:16:09.584Z,60.13
2022-07-26T03:18:36.055Z,60.08
2022-07-26T03:21:02.446Z,59.92
2022-07-26T03:23:28.780Z,59.75
2022-07-26T03:25:55.100Z,59.96
2022-07-26T03:28:21.480Z,60.30
2022-07-26T03:30:47.848Z,60.20
2022-07-26T03:33:14.272Z,59.96
2022-07-26T03:35:40.630Z,60.09
2022-07-26T03:38:06.944Z,60.37
2022-07-26T03:40:33.282Z,60.36
2022-07-26T03:42:59.569Z,59.96
2022-07-26T03:45:26.210Z,60.02
2022-07-26T03:47:52.555Z,60.34
2022-07-26T03:50:18.880Z,59.83
2022-07-26T03:52:45.307Z,60.24
2022-07-26T03:55:11.596Z,60.27
2022-07-26T03:57:37.877Z,60.04
2022-07-26T04:00:04.427Z,60.05
2022-07-26T04:02:30.832Z,60.42
2022-07-26T04:04:57.219Z,60.01
2022-07-26T04:07:23.531Z,60.35
2022-07-26T04:09:53.335Z,60.16
2022-07-26T04:12:21.188Z,60.46
2022-07-26T04:14:47.635Z,60.45
2022-07-26T04:17:14.155Z,60.59
2022-07-26T04:19:40.567Z,60.29
2022-07-26T04:22:07.052Z,60.39
2022-07-26T04:24:33.445Z,60.14
2022-07-26T04:27:00.372Z,60.40
2022-07-26T04:29:26.739Z,60.28
2022-07-26T04:31:53.209Z,60.70
2022-07-26T04:34:19.870Z,60.20
2022-07-26T04:36:46.557Z,60.88
2022-07-26T04:39:12.842Z,60.54
2022-07-26T04:41:39.192Z,60.38
2022-07-26T04:44:05.708Z,60.71
2022-07-26T04:46:32.329Z,60.35
2022-07-26T04:48:58.774Z,60.76
2022-07-26T04:51:25.391Z,60.62
2022-07-26T04:53:51.738Z,60.73
2022-07-26T04:56:18.050Z,60.77
2022-07-26T04:58:44.351Z,60.85
2022-07-26T05:01:11.328Z,60.87
2022-07-26T05:03:37.883Z,60.79
2022-07-26T05:06:04.493Z,60.93
2022-07-26T05:08:30.853Z,61.26
2022-07-26T05:10:57.182Z,61.45
2022-07-26T05:13:30.494Z,61.01
2022-07-26T05:15:57.700Z,61.18
2022-07-26T05:18:24.425Z,61.17
2022-07-26T05:20:50.776Z,60.92
2022-07-26T05:23:17.192Z,61.12
2022-07-26T05:25:43.528Z,60.76
2022-07-26T05:28:10.057Z,61.05
2022-07-26T05:30:36.518Z,60.86
2022-07-26T05:33:03.095Z,60.91
2022-07-26T05:35:29.471Z,61.12
2022-07-26T05:37:55.739Z,61.07
2022-07-26T05:40:22.026Z,61.12
2022-07-26T05:42:52.215Z,60.71
2022-07-26T05:45:18.615Z,60.95
2022-07-26T05:47:45.011Z,61.00
2022-07-26T05:50:11.379Z,60.41
2022-07-26T05:52:37.681Z,60.74
2022-07-26T05:55:04.025Z,60.39
2022-07-26T05:57:30.495Z,60.84
2022-07-26T05:59:57.371Z,60.98
2022-07-26T06:02:23.978Z,61.06
2022-07-26T06:04:50.400Z,60.93
2022-07-26T06:07:16.843Z,60.80
2022-07-26T06:09:43.193Z,60.81
2022-07-26T06:12:10.698Z,60.91
2022-07-26T06:14:37.057Z,60.91
2022-07-26T06:17:03.438Z,60.54
2022-07-26T06:19:29.838Z,60.69
2022-07-26T06:21:56.305Z,60.94
2022-07-26T06:24:22.753Z,60.70
2022-07-26T06:26:52.295Z,61.07
2022-07-26T06:29:21.264Z,60.59
2022-07-26T06:31:48.834Z,60.53
2022-07-26T06:34:15.217Z,60.72
2022-07-26T06:36:41.635Z,60.83
2022-07-26T06:39:08.415Z,60.82
2022-07-26T06:41:34.811Z,60.50
2022-07-26T06:44:01.217Z,60.89
2022-07-26T06:46:27.713Z,60.68
2022-07-26T06:48:54.054Z,60.55
2022-07-26T06:51:23.336Z,60.80
2022-07-26T06:53:49.670Z,60.71
2022-07-26T06:56:16.038Z,60.35
2022-07-26T06:58:42.455Z,60.40
2022-07-26T07:01:09.077Z,60.79
2022-07-26T07:03:35.729Z,60.83
2022-07-26T07:06:02.090Z,61.79
2022-07-26T07:08:28.666Z,61.24
2022-07-26T07:10:55.052Z,61.31
2022-07-26T07:13:21.376Z,61.20
2022-07-26T07:15:47.759Z,61.52
2022-07-26T07:18:14.067Z,60.83
2022-07-26T07:20:40.475Z,60.94
2022-07-26T07:23:06.759Z,61.20
2022-07-26T07:25:33.110Z,60.93
2022-07-26T07:27:59.680Z,61.15
2022-07-26T07:30:29.518Z,60.94
2022-07-26T07:32:55.815Z,60.60
2022-07-26T07:35:22.986Z,60.81
2022-07-26T07:37:53.634Z,60.80
2022-07-26T07:40:20.669Z,60.76
2022-07-26T07:42:47.029Z,61.09
2022-07-26T07:45:13.395Z,60.67
2022-07-26T07:47:39.844Z,60.86
2022-07-26T07:50:06.272Z,60.62
2022-07-26T07:52:32.626Z,60.75
2022-07-26T07:55:36.080Z,60.51
2022-07-26T07:57:45.308Z,60.91
2022-07-26T08:00:12.670Z,60.80
2022-07-26T08:02:42.535Z,60.59
2022-07-26T08:05:13.926Z,60.67
2022-07-26T08:07:40.979Z,60.46
2022-07-26T08:10:07.509Z,60.75
2022-07-26T08:12:33.872Z,60.71
2022-07-26T08:15:00.240Z,60.85
2022-07-26T08:17:26.686Z,60.98
2022-07-26T08:19:59.788Z,60.54
2022-07-26T08:22:27.083Z,60.70
2022-07-26T08:24:53.389Z,60.33
2022-07-26T08:27:19.698Z,60.59
2022-07-26T08:29:46.063Z,60.41
2022-07-26T08:32:12.712Z,60.63
2022-07-26T08:34:38.975Z,60.33
2022-07-26T08:37:17.184Z,60.55
2022-07-26T08:39:44.334Z,60.40
2022-07-26T08:42:10.724Z,60.52
2022-07-26T08:44:37.295Z,60.19
2022-07-26T08:47:03.683Z,60.49
2022-07-26T08:49:30.448Z,60.83
2022-07-26T08:51:57.471Z,60.35
2022-07-26T08:54:23.794Z,60.29
2022-07-26T08:56:50.156Z,59.94
2022-07-26T08:59:21.035Z,60.10
2022-07-26T09:01:48.290Z,59.86
2022-07-26T09:04:29.918Z,60.21
2022-07-26T09:06:57.748Z,60.07
2022-07-26T09:09:24.649Z,59.90
2022-07-26T09:11:50.974Z,59.74
2022-07-26T09:14:17.639Z,59.96
2022-07-26T09:16:44.058Z,59.99
2022-07-26T09:19:10.549Z,59.79
2022-07-26T09:21:37.360Z,59.84
2022-07-26T09:24:03.789Z,60.36
2022-07-26T09:26:30.169Z,60.20
2022-07-26T09:28:56.444Z,59.99
2022-07-26T09:31:22.782Z,59.92
2022-07-26T09:33:49.863Z,59.94
2022-07-26T09:36:16.551Z,59.84
2022-07-26T09:38:42.937Z,60.13
2022-07-26T09:41:09.433Z,59.97
2022-07-26T09:43:35.812Z,59.87
2022-07-26T09:46:02.462Z,60.01
2022-07-26T09:48:36.641Z,60.13
2022-07-26T09:51:12.570Z,60.18
2022-07-26T09:53:38.978Z,60.03
2022-07-26T09:56:05.324Z,59.81
2022-07-26T09:58:31.746Z,59.60
2022-07-26T10:01:02.316Z,59.98
2022-07-26T10:03:29.080Z,59.60
2022-07-26T10:05:55.422Z,59.84
2022-07-26T10:08:21.995Z,59.71
2022-07-26T10:10:48.369Z,59.49
2022-07-26T10:13:14.719Z,59.75
2022-07-26T10:15:41.182Z,59.77
2022-07-26T10:18:09.286Z,59.49
2022-07-26T10:20:42.837Z,59.59
2022-07-26T10:23:09.257Z,59.88
2022-07-26T10:25:35.882Z,59.72
2022-07-26T10:28:02.260Z,59.40
2022-07-26T10:30:40.284Z,59.74
2022-07-26T10:33:06.647Z,59.63
2022-07-26T10:35:33.019Z,59.10
2022-07-26T10:37:59.385Z,59.39
2022-07-26T10:40:25.742Z,59.23
2022-07-26T10:42:52.097Z,59.07
2022-07-26T10:45:18.635Z,58.82
2022-07-26T10:47:45.043Z,59.36
2022-07-26T10:50:11.573Z,59.08
2022-07-26T10:52:38.062Z,59.17
2022-07-26T10:55:04.741Z,59.22
2022-07-26T10:57:31.341Z,59.08
2022-07-26T10:59:57.725Z,59.26
2022-07-26T11:02:25.521Z,59.22
2022-07-26T11:04:52.013Z,59.02
2022-07-26T11:07:18.379Z,58.96
2022-07-26T11:09:44.678Z,59.07
2022-07-26T11:12:11.179Z,58.94
2022-07-26T11:14:37.540Z,58.93
2022-07-26T11:17:03.931Z,58.78
2022-07-26T11:19:30.312Z,58.92
2022-07-26T11:21:56.856Z,58.60
2022-07-26T11:24:23.392Z,58.94
2022-07-26T11:26:49.986Z,58.88
2022-07-26T11:29:17.601Z,58.65
2022-07-26T11:31:50.834Z,58.57
2022-07-26T11:34:26.190Z,59.14
2022-07-26T11:36:52.540Z,58.59
2022-07-26T11:39:19.006Z,58.56
2022-07-26T11:41:45.314Z,58.89
2022-07-26T11:44:11.928Z,58.81
2022-07-26T11:46:38.606Z,58.91
2022-07-26T11:49:05.266Z,58.75
2022-07-26T11:51:31.662Z,58.56
2022-07-26T11:53:57.975Z,58.94
2022-07-26T11:56:24.356Z,58.57
2022-07-26T11:58:50.648Z,58.57
2022-07-26T12:01:16.993Z,58.64
2022-07-26T12:03:43.466Z,58.66
2022-07-26T12:06:10.005Z,58.75
2022-07-26T12:08:36.390Z,58.51
2022-07-26T12:11:02.691Z,58.75
2022-07-26T12:13:29.185Z,58.39
2022-07-26T12:16:06.725Z,58.68
2022-07-26T12:18:33.496Z,58.34
2022-07-26T12:21:04.595Z,58.39
2022-07-26T12:23:31.818Z,58.18
2022-07-26T12:25:58.107Z,58.21
2022-07-26T12:28:24.506Z,58.17
2022-07-26T12:30:50.940Z,58.19
2022-07-26T12:33:17.327Z,58.68
2022-07-26T12:35:43.733Z,58.09
2022-07-26T12:38:10.087Z,58.59
2022-07-26T12:40:36.428Z,58.31
2022-07-26T12:43:03.108Z,58.81
2022-07-26T12:45:29.945Z,58.21
2022-07-26T12:47:56.432Z,58.22
2022-07-26T12:50:22.850Z,58.63
2022-07-26T12:52:49.441Z,58.04
2022-07-26T12:55:15.798Z,57.93
2022-07-26T12:57:46.173Z,58.45
2022-07-26T13:00:14.078Z,58.22
2022-07-26T13:02:40.734Z,58.40
2022-07-26T13:05:07.405Z,58.39
2022-07-26T13:07:34.199Z,58.40
2022-07-26T13:10:30.495Z,58.61
2022-07-26T13:12:47.109Z,58.50
2022-07-26T13:15:13.553Z,58.31
2022-07-26T13:17:40.025Z,58.16
2022-07-26T13:20:06.556Z,58.43
2022-07-26T13:22:32.926Z,58.40
2022-07-26T13:24:59.946Z,58.01
2022-07-26T13:27:35.938Z,58.41
2022-07-26T13:30:03.115Z,58.19
2022-07-26T13:32:29.775Z,57.97
2022-07-26T13:34:56.398Z,58.45
2022-07-26T13:37:22.740Z,58.33
2022-07-26T13:39:49.108Z,57.82
2022-07-26T13:42:15.768Z,58.43
2022-07-26T13:44:42.050Z,58.05
2022-07-26T13:47:08.359Z,57.95
2022-07-26T13:49:34.800Z,57.99
2022-07-26T13:52:01.322Z,58.09
2022-07-26T13:54:27.715Z,58.33
2022-07-26T13:56:54.067Z,58.04
2022-07-26T13:59:20.543Z,58.05
2022-07-26T14:01:47.774Z,58.05
2022-07-26T14:04:14.824Z,58.31
2022-07-26T14:06:41.637Z,58.03
2022-07-26T14:09:10.757Z,57.80
2022-07-26T14:11:37.484Z,58.12
2022-07-26T14:14:03.814Z,58.09
2022-07-26T14:16:30.306Z,58.13
2022-07-26T14:18:56.901Z,58.01
2022-07-26T14:21:24.313Z,57.90
2022-07-26T14:23:50.658Z,57.69
2022-07-26T14:26:16.991Z,58.02
2022-07-26T14:28:43.342Z,58.36
2022-07-26T14:31:09.767Z,57.83
2022-07-26T14:33:36.110Z,58.41
2022-07-26T14:36:02.922Z,58.17
2022-07-26T14:38:30.208Z,57.84
2022-07-26T14:40:56.672Z,57.93
2022-07-26T14:43:23.033Z,57.98
2022-07-26T14:45:49.474Z,58.14
2022-07-26T14:48:31.615Z,58.27
2022-07-26T14:51:10.128Z,58.26
2022-07-26T14:53:36.646Z,57.94
2022-07-26T14:56:03.059Z,58.23
2022-07-26T14:58:29.395Z,57.96
2022-07-26T15:00:55.790Z,58.31
2022-07-26T15:03:22.443Z,58.27
2022-07-26T15:05:48.823Z,58.02
2022-07-26T15:08:15.181Z,58.13
2022-07-26T15:10:41.713Z,58.47
2022-07-26T15:13:08.050Z,57.99
2022-07-26T15:15:34.394Z,58.34
2022-07-26T15:18:00.858Z,58.37
2022-07-26T15:20:27.184Z,58.37
2022-07-26T15:22:53.514Z,58.36
2022-07-26T15:25:20.578Z,58.18
2022-07-26T15:27:47.038Z,58.45
2022-07-26T15:30:13.761Z,58.33
2022-07-26T15:32:41.614Z,58.53
2022-07-26T15:35:07.918Z,57.81
2022-07-26T15:37:41.096Z,58.10
2022-07-26T15:40:07.569Z,57.96
2022-07-26T15:42:33.883Z,58.21
2022-07-26T15:45:00.456Z,58.29
2022-07-26T15:47:53.816Z,58.18
2022-07-26T15:50:22.068Z,58.27
2022-07-26T15:52:48.672Z,58.13
2022-07-26T15:55:15.166Z,58.27
2022-07-26T15:57:41.491Z,58.21
2022-07-26T16:00:11.698Z,58.43
2022-07-26T16:02:38.457Z,58.09
2022-07-26T16:05:04.833Z,58.44
2022-07-26T16:07:31.209Z,58.47
2022-07-26T16:09:57.986Z,58.19
2022-07-26T16:12:24.325Z,58.39
2022-07-26T16:14:50.807Z,58.53
2022-07-26T16:17:17.162Z,58.28
2022-07-26T16:19:43.721Z,58.36
2022-07-26T16:22:10.110Z,58.47
2022-07-26T16:24:36.532Z,58.15
2022-07-26T16:27:03.007Z,58.64
2022-07-26T16:29:29.357Z,58.35
2022-07-26T16:31:55.998Z,58.44
2022-07-26T16:34:24.853Z,58.37
2022-07-26T16:36:51.455Z,58.18
2022-07-26T16:39:17.957Z,58.52
2022-07-26T16:41:44.389Z,58.18
2022-07-26T16:44:11.040Z,58.35
2022-07-26T16:46:37.518Z,58.66
2022-07-26T16:49:04.730Z,58.24
2022-07-26T16:51:31.572Z,58.47
2022-07-26T16:53:57.948Z,58.28
2022-07-26T16:56:24.339Z,58.13
2022-07-26T16:58:50.839Z,58.42
2022-07-26T17:01:17.894Z,58.03
2022-07-26T17:03:44.261Z,58.33
2022-07-26T17:06:10.793Z,57.93
2022-07-26T17:08:37.156Z,57.96
2022-07-26T17:11:03.581Z,58.32
2022-07-26T17:13:29.945Z,58.14
2022-07-26T17:15:56.461Z,58.20
2022-07-26T17:18:22.875Z,57.98
2022-07-26T17:20:49.287Z,58.02
2022-07-26T17:23:15.829Z,58.40
2022-07-26T17:25:42.153Z,57.86
2022-07-26T17:28:08.531Z,58.20
2022-07-26T17:30:34.858Z,57.79
2022-07-26T17:33:01.530Z,57.88
2022-07-26T17:35:27.927Z,57.92
2022-07-26T17:37:54.751Z,58.12
2022-07-26T17:40:21.464Z,58.22
2022-07-26T17:42:52.196Z,58.16
2022-07-26T17:45:18.614Z,57.95
2022-07-26T17:47:44.979Z,57.90
2022-07-26T17:50:35.478Z,58.13
2022-07-26T17:52:57.930Z,58.12
2022-07-26T17:55:24.353Z,57.83
2022-07-26T17:57:51.080Z,57.80
2022-07-26T18:00:17.432Z,58.19
2022-07-26T18:02:43.789Z,58.37
2022-07-26T18:05:10.418Z,57.90
2022-07-26T18:07:36.970Z,58.09
2022-07-26T18:10:03.397Z,58.04
2022-07-26T18:12:29.690Z,58.27
2022-07-26T18:14:56.047Z,57.66
2022-07-26T18:17:22.417Z,58.38
2022-07-26T18:19:48.751Z,58.25
2022-07-26T18:22:17.017Z,58.13
2022-07-26T18:24:45.626Z,58.03
2022-07-26T18:27:11.930Z,58.15
2022-07-26T18:29:38.284Z,57.87
2022-07-26T18:32:04.794Z,58.25
2022-07-26T18:34:31.159Z,58.21
2022-07-26T18:36:57.560Z,58.12
2022-07-26T18:39:23.902Z,57.81
2022-07-26T18:41:50.249Z,57.94
2022-07-26T18:44:16.592Z,58.03
2022-07-26T18:46:43.125Z,57.97
2022-07-26T18:49:09.944Z,57.88
2022-07-26T18:51:44.994Z,57.83
2022-07-26T18:54:14.954Z,57.90
2022-07-26T18:56:41.263Z,58.24
2022-07-26T18:59:07.869Z,58.05
2022-07-26T19:01:34.447Z,58.11
2022-07-26T19:04:06.141Z,57.71
2022-07-26T19:06:32.971Z,58.00
2022-07-26T19:08:59.312Z,57.98
2022-07-26T19:11:26.022Z,58.08
2022-07-26T19:13:52.458Z,58.05
2022-07-26T19:16:18.986Z,57.94
2022-07-26T19:18:49.415Z,57.96
2022-07-26T19:21:17.487Z,57.65
2022-07-26T19:23:43.802Z,57.93
2022-07-26T19:26:10.222Z,57.98
2022-07-26T19:28:36.846Z,57.93
2022-07-26T19:31:03.390Z,57.58
2022-07-26T19:33:30.074Z,58.06
2022-07-26T19:35:56.465Z,57.68
2022-07-26T19:38:22.894Z,57.87
2022-07-26T19:40:49.298Z,58.04
2022-07-26T19:43:15.918Z,58.09
2022-07-26T19:45:42.333Z,58.32
2022-07-26T19:48:15.647Z,58.06
2022-07-26T19:50:42.123Z,58.49
2022-07-26T19:53:17.178Z,58.16
2022-07-26T19:55:43.958Z,58.60
2022-07-26T19:58:10.463Z,58.53
2022-07-26T20:00:46.687Z,58.21
2022-07-26T20:03:13.531Z,58.54
2022-07-26T20:05:40.178Z,58.61
2022-07-26T20:08:06.565Z,57.87
2022-07-26T20:10:32.920Z,57.94
2022-07-26T20:12:59.562Z,58.34
2022-07-26T20:15:25.940Z,58.52
2022-07-26T20:17:52.299Z,58.32
2022-07-26T20:20:18.790Z,58.33
2022-07-26T20:22:45.164Z,58.15
2022-07-26T20:25:11.488Z,58.05
2022-07-26T20:27:39.048Z,58.21
2022-07-26T20:30:05.467Z,58.41
2022-07-26T20:32:31.846Z,58.71
2022-07-26T20:34:58.214Z,58.26
2022-07-26T20:37:24.739Z,58.43
2022-07-26T20:39:51.170Z,57.97
2022-07-26T20:42:21.460Z,58.26
2022-07-26T20:44:48.434Z,58.17
2022-07-26T20:47:15.055Z,58.24
2022-07-26T20:49:41.476Z,58.05
2022-07-26T20:52:08.064Z,58.41
2022-07-26T20:54:34.465Z,58.15
2022-07-26T20:57:00.834Z,58.30
2022-07-26T20:59:30.813Z,58.06
2022-07-26T21:01:57.297Z,58.38
2022-07-26T21:04:23.902Z,57.90
2022-07-26T21:06:50.295Z,58.17
2022-07-26T21:09:17.040Z,58.43
2022-07-26T21:11:43.533Z,58.46
2022-07-26T21:14:09.888Z,58.05
2022-07-26T21:16:36.309Z,58.28
2022-07-26T21:19:02.739Z,58.45
2022-07-26T21:21:29.222Z,58.43
2022-07-26T21:23:55.548Z,58.10
2022-07-26T21:26:21.925Z,58.01
2022-07-26T21:28:48.391Z,58.57
2022-07-26T21:31:14.759Z,58.38
2022-07-26T21:33:41.131Z,58.16
2022-07-26T21:36:07.452Z,58.43
2022-07-26T21:38:33.884Z,58.45
2022-07-26T21:41:00.280Z,58.43
2022-07-26T21:43:26.695Z,58.40
2022-07-26T21:45:53.106Z,58.32
2022-07-26T21:48:19.854Z,58.38
2022-07-26T21:50:46.486Z,57.87
2022-07-26T21:53:13.058Z,58.42
2022-07-26T21:55:39.420Z,58.26
2022-07-26T21:58:05.931Z,58.03
2022-07-26T22:00:32.270Z,58.06
2022-07-26T22:02:58.803Z,58.56
2022-07-26T22:05:25.322Z,58.27
2022-07-26T22:07:51.732Z,58.03
2022-07-26T22:10:18.252Z,58.42
2022-07-26T22:12:46.257Z,58.06
2022-07-26T22:15:12.546Z,57.88
2022-07-26T22:17:38.971Z,58.36
2022-07-26T22:20:05.385Z,58.45
2022-07-26T22:22:31.739Z,58.45
2022-07-26T22:24:58.219Z,58.51
2022-07-26T22:27:24.731Z,58.01
2022-07-26T22:29:51.067Z,58.29
2022-07-26T22:32:17.379Z,58.38
2022-07-26T22:34:43.715Z,58.09
2022-07-26T22:37:09.994Z,58.28
2022-07-26T22:39:36.319Z,58.07
2022-07-26T22:42:15.308Z,58.41
2022-07-26T22:44:42.535Z,58.34
2022-07-26T22:47:08.879Z,58.29
2022-07-26T22:49:35.300Z,57.91
2022-07-26T22:52:01.663Z,58.34
2022-07-26T22:54:28.297Z,58.33
2022-07-26T22:56:54.657Z,58.27
2022-07-26T22:59:21.045Z,57.97
2022-07-26T23:01:47.972Z,58.23
2022-07-26T23:04:14.559Z,58.23
2022-07-26T23:06:40.960Z,58.30
2022-07-26T23:09:09.710Z,58.26
2022-07-26T23:11:36.399Z,57.75
2022-07-26T23:14:02.834Z,58.22
2022-07-26T23:16:29.485Z,57.89
2022-07-26T23:18:55.904Z,58.00
2022-07-26T23:21:22.291Z,58.15
2022-07-26T23:23:48.674Z,57.66
2022-07-26T23:26:14.990Z,57.78
2022-07-26T23:28:41.342Z,57.74
2022-07-26T23:31:07.800Z,57.54
2022-07-26T23:33:51.893Z,57.81
2022-07-26T23:36:19.922Z,57.70
2022-07-26T23:38:46.239Z,57.78
2022-07-26T23:41:12.607Z,57.80
2022-07-26T23:43:38.918Z,57.67
2022-07-26T23:46:05.369Z,57.70
2022-07-26T23:48:31.801Z,57.34
2022-07-26T23:50:58.395Z,57.70
2022-07-26T23:53:26.787Z,57.30
2022-07-26T23:55:53.639Z,57.25
2022-07-26T23:58:19.975Z,57.14
